Time;durP1;ratioP1;P1;durP2;ratioP2;P2;SDS_P1;SDS_P2;PMS_P1;PMS_P2;Temp;Humidity;BMP_temperature;BMP_pressure;BME280_temperature;BME280_humidity;BME280_pressure;Samples;Min_cycle;Max_cycle;Signal;HPM_P1;HPM_P2
2022/05/15 00:02:13;;;;;;;;;;;17.30;85.70;;;;;;5015058;28;19955;-86
2022/05/15 00:04:39;;;;;;;;;;;17.30;85.60;;;;;;4997019;28;19941;-84
2022/05/15 00:07:05;;;;;;;;;;;17.30;85.40;;;;;;4997283;28;19912;-83
2022/05/15 00:09:31;;;;;;;;;;;17.40;85.30;;;;;;5014833;28;19905;-83
2022/05/15 00:11:56;;;;;;;;;;;17.40;85.20;;;;;;4997261;28;20405;-84
2022/05/15 00:14:22;;;;;;;;;;;17.40;85.00;;;;;;5014798;28;19912;-82
2022/05/15 00:16:47;;;;;;;;;;;17.40;84.80;;;;;;5014902;28;20396;-84
2022/05/15 00:19:13;;;;;;;;;;;17.40;84.70;;;;;;5016623;28;19914;-84
2022/05/15 00:21:38;;;;;;;;;;;17.40;85.00;;;;;;5015969;28;20004;-84
2022/05/15 00:24:04;;;;;;;;;;;17.40;85.00;;;;;;4998862;28;19959;-84
2022/05/15 00:26:30;;;;;;;;;;;17.40;85.10;;;;;;5004705;28;19947;-84
2022/05/15 00:28:56;;;;;;;;;;;17.40;85.20;;;;;;5022943;28;19913;-84
2022/05/15 00:31:21;;;;;;;;;;;17.30;85.30;;;;;;5004981;28;19956;-85
2022/05/15 00:33:47;;;;;;;;;;;17.30;85.40;;;;;;5004919;28;19912;-84
2022/05/15 00:36:12;;;;;;;;;;;17.30;85.40;;;;;;5004810;28;19905;-85
2022/05/15 00:38:38;;;;;;;;;;;17.30;85.40;;;;;;5022340;28;19912;-84
2022/05/15 00:41:03;;;;;;;;;;;17.30;85.50;;;;;;5004329;28;20573;-84
2022/05/15 00:43:40;;;;;;;;;;;17.30;85.50;;;;;;5022517;28;19981;-84
2022/05/15 00:46:07;;;;;;;;;;;17.30;85.50;;;;;;5004170;28;19905;-84
2022/05/15 00:48:33;;;;;;;;;;;17.30;85.50;;;;;;5004445;28;19905;-85
2022/05/15 00:51:00;;;;;;;;;;;17.30;85.40;;;;;;5022072;28;20425;-84
2022/05/15 00:53:25;;;;;;;;;;;17.30;85.40;;;;;;5004253;28;20389;-84
2022/05/15 00:55:52;;;;;;;;;;;17.20;85.30;;;;;;5003707;28;19905;-83
2022/05/15 00:58:21;;;;;;;;;;;17.30;85.40;;;;;;5021705;28;19905;-84
2022/05/15 01:00:47;;;;;;;;;;;17.20;85.40;;;;;;5021593;28;20024;-83
2022/05/15 01:03:14;;;;;;;;;;;17.20;85.50;;;;;;5003355;28;19961;-84
2022/05/15 01:05:41;;;;;;;;;;;17.30;85.50;;;;;;5003473;28;19917;-82
2022/05/15 01:08:07;;;;;;;;;;;17.30;85.40;;;;;;5021002;28;19968;-83
2022/05/15 01:10:36;;;;;;;;;;;17.30;85.20;;;;;;5003763;28;19906;-83
2022/05/15 01:13:02;;;;;;;;;;;17.30;85.10;;;;;;5003337;28;20390;-83
2022/05/15 01:15:28;;;;;;;;;;;17.40;85.00;;;;;;5003694;28;19912;-83
2022/05/15 01:17:53;;;;;;;;;;;17.40;84.80;;;;;;5021220;28;19913;-83
2022/05/15 01:20:20;;;;;;;;;;;17.40;84.70;;;;;;5003527;28;19909;-83
2022/05/15 01:22:46;;;;;;;;;;;17.40;84.90;;;;;;5003608;28;19909;-83
2022/05/15 01:25:14;;;;;;;;;;;17.30;84.90;;;;;;5003139;28;20354;-83
2022/05/15 01:27:40;;;;;;;;;;;17.30;85.00;;;;;;5021430;28;19959;-83
2022/05/15 01:30:06;;;;;;;;;;;17.30;85.10;;;;;;5003887;28;19905;-83
2022/05/15 01:32:32;;;;;;;;;;;17.30;85.20;;;;;;5003592;28;19905;-83
2022/05/15 01:34:57;;;;;;;;;;;17.30;85.30;;;;;;5020552;28;19909;-83
2022/05/15 01:37:22;;;;;;;;;;;17.30;85.40;;;;;;5000426;28;19937;-83
2022/05/15 01:39:48;;;;;;;;;;;17.20;85.40;;;;;;4999875;28;19905;-83
2022/05/15 01:42:13;;;;;;;;;;;17.30;85.50;;;;;;5000021;28;19909;-84
2022/05/15 01:44:39;;;;;;;;;;;17.20;85.40;;;;;;5002227;28;20394;-84
2022/05/15 01:47:05;;;;;;;;;;;17.20;85.40;;;;;;5019331;28;19927;-82
2022/05/15 01:49:30;;;;;;;;;;;17.20;85.40;;;;;;5001335;28;19905;-84
2022/05/15 01:51:55;;;;;;;;;;;17.20;85.30;;;;;;5019021;28;19996;-84
2022/05/15 01:54:21;;;;;;;;;;;17.20;85.40;;;;;;5018576;28;20036;-83
2022/05/15 01:56:46;;;;;;;;;;;17.20;85.30;;;;;;5001091;28;20012;-84
2022/05/15 01:59:12;;;;;;;;;;;17.20;85.20;;;;;;5000837;28;19913;-83
2022/05/15 02:01:37;;;;;;;;;;;17.20;85.20;;;;;;5000749;28;19906;-83
2022/05/15 02:04:03;;;;;;;;;;;17.20;85.40;;;;;;5000395;28;19909;-83
2022/05/15 02:06:29;;;;;;;;;;;17.20;85.40;;;;;;5017325;28;19905;-83
2022/05/15 02:08:55;;;;;;;;;;;17.30;85.40;;;;;;5017512;28;20293;-83
2022/05/15 02:11:20;;;;;;;;;;;17.30;85.20;;;;;;4999681;28;20354;-83
2022/05/15 02:13:46;;;;;;;;;;;17.30;85.10;;;;;;4999894;28;20385;-83
2022/05/15 02:16:11;;;;;;;;;;;17.30;85.00;;;;;;5017549;28;20436;-83
2022/05/15 02:18:36;;;;;;;;;;;17.30;84.70;;;;;;4999326;28;19913;-83
2022/05/15 02:21:02;;;;;;;;;;;17.40;84.70;;;;;;5017504;28;20408;-83
2022/05/15 02:23:27;;;;;;;;;;;17.30;84.80;;;;;;4999401;28;20389;-83
2022/05/15 02:25:53;;;;;;;;;;;17.30;84.80;;;;;;5016700;28;19913;-83
2022/05/15 02:28:19;;;;;;;;;;;17.30;84.90;;;;;;5017151;28;19909;-83
2022/05/15 02:30:47;;;;;;;;;;;17.30;85.10;;;;;;4999486;28;20381;-83
2022/05/15 02:33:12;;;;;;;;;;;17.30;85.20;;;;;;5016967;28;19906;-83
2022/05/15 02:35:38;;;;;;;;;;;17.20;85.30;;;;;;5017240;28;19905;-83
2022/05/15 02:38:03;;;;;;;;;;;17.30;85.40;;;;;;5017026;28;19906;-83
2022/05/15 02:40:29;;;;;;;;;;;17.20;85.40;;;;;;5017249;28;19906;-82
2022/05/15 02:42:56;;;;;;;;;;;17.20;85.30;;;;;;4999383;28;20003;-83
2022/05/15 02:45:22;;;;;;;;;;;17.20;85.30;;;;;;4999049;28;19931;-83
2022/05/15 02:47:47;;;;;;;;;;;17.20;85.20;;;;;;4997794;28;20422;-84
2022/05/15 02:52:57;;;;;;;;;;;17.20;85.10;;;;;;5016686;28;19912;-84
2022/05/15 02:55:23;;;;;;;;;;;17.20;85.00;;;;;;5016219;28;19905;-84
2022/05/15 02:57:49;;;;;;;;;;;17.20;85.10;;;;;;4998547;28;19906;-84
2022/05/15 03:00:15;;;;;;;;;;;17.20;85.00;;;;;;5009595;28;20374;-83
2022/05/15 03:02:41;;;;;;;;;;;17.20;85.10;;;;;;4999690;28;20275;-83
2022/05/15 03:05:07;;;;;;;;;;;17.20;85.20;;;;;;4997960;28;19906;-83
2022/05/15 03:07:33;;;;;;;;;;;17.20;85.40;;;;;;4998474;28;20377;-83
2022/05/15 03:09:58;;;;;;;;;;;17.20;85.30;;;;;;5016511;28;19906;-83
2022/05/15 03:12:24;;;;;;;;;;;17.20;85.10;;;;;;5009598;28;19959;-83
2022/05/15 03:14:49;;;;;;;;;;;17.30;85.10;;;;;;5017683;28;19909;-82
2022/05/15 03:17:16;;;;;;;;;;;17.30;85.00;;;;;;5017527;28;19905;-83
2022/05/15 03:19:43;;;;;;;;;;;17.30;84.80;;;;;;5017756;28;19909;-83
2022/05/15 03:22:08;;;;;;;;;;;17.30;84.50;;;;;;5035392;28;19920;-83
2022/05/15 03:24:33;;;;;;;;;;;17.30;84.60;;;;;;5035157;28;19909;-83
2022/05/15 03:27:00;;;;;;;;;;;17.30;84.70;;;;;;5035517;28;19909;-83
2022/05/15 03:29:26;;;;;;;;;;;17.30;84.80;;;;;;5035262;28;19905;-83
2022/05/15 03:31:52;;;;;;;;;;;17.30;85.00;;;;;;5035480;28;20377;-83
2022/05/15 03:34:17;;;;;;;;;;;17.20;85.00;;;;;;5017281;28;20251;-83
2022/05/15 03:36:43;;;;;;;;;;;17.20;85.10;;;;;;5035118;28;19912;-83
2022/05/15 03:39:10;;;;;;;;;;;17.30;85.30;;;;;;5017436;28;19911;-84
2022/05/15 03:41:35;;;;;;;;;;;17.20;85.30;;;;;;5035378;28;20003;-84
2022/05/15 03:44:01;;;;;;;;;;;17.20;85.30;;;;;;5034566;28;19948;-83
2022/05/15 03:46:27;;;;;;;;;;;17.20;85.30;;;;;;5036927;28;19913;-83
2022/05/15 03:48:52;;;;;;;;;;;17.20;85.30;;;;;;5018809;28;19912;-85
2022/05/15 03:51:18;;;;;;;;;;;17.20;85.20;;;;;;5036627;28;19912;-84
2022/05/15 03:53:44;;;;;;;;;;;17.10;85.00;;;;;;5018349;28;19947;-84
2022/05/15 03:56:09;;;;;;;;;;;17.20;85.00;;;;;;5018183;28;19909;-83
2022/05/15 03:58:36;;;;;;;;;;;17.10;84.90;;;;;;5036351;28;19928;-83
2022/05/15 04:01:02;;;;;;;;;;;17.10;85.00;;;;;;5018348;28;19904;-83
2022/05/15 04:03:27;;;;;;;;;;;17.10;84.90;;;;;;5036232;28;19916;-83
2022/05/15 04:05:53;;;;;;;;;;;17.10;84.90;;;;;;5017567;28;19905;-83
2022/05/15 04:08:19;;;;;;;;;;;17.10;85.30;;;;;;5017841;28;20294;-83
2022/05/15 04:10:44;;;;;;;;;;;17.20;85.30;;;;;;5017854;28;19909;-83
2022/05/15 04:13:09;;;;;;;;;;;17.20;85.20;;;;;;5035082;28;19915;-83
2022/05/15 04:15:35;;;;;;;;;;;17.20;85.00;;;;;;5035069;28;19955;-83
2022/05/15 04:18:00;;;;;;;;;;;17.20;84.90;;;;;;5034931;28;19913;-83
2022/05/15 04:20:27;;;;;;;;;;;17.30;84.80;;;;;;5035170;28;19975;-83
2022/05/15 04:22:53;;;;;;;;;;;17.30;84.70;;;;;;5017003;28;19913;-83
2022/05/15 04:25:19;;;;;;;;;;;17.30;84.50;;;;;;5034418;28;20295;-84
2022/05/15 04:27:45;;;;;;;;;;;17.30;84.60;;;;;;5035138;28;19908;-83
2022/05/15 04:30:11;;;;;;;;;;;17.30;84.70;;;;;;5034920;28;20377;-83
2022/05/15 04:32:37;;;;;;;;;;;17.30;84.80;;;;;;5017035;28;19905;-84
2022/05/15 04:35:03;;;;;;;;;;;17.20;84.80;;;;;;5034347;28;19905;-84
2022/05/15 04:37:29;;;;;;;;;;;17.20;84.90;;;;;;5030278;28;19952;-83
2022/05/15 04:39:54;;;;;;;;;;;17.20;85.10;;;;;;4997035;28;19905;-83
2022/05/15 04:42:20;;;;;;;;;;;17.20;85.20;;;;;;4997284;28;19921;-84
2022/05/15 04:44:45;;;;;;;;;;;17.20;85.10;;;;;;4997008;28;19949;-84
2022/05/15 04:47:11;;;;;;;;;;;17.20;85.00;;;;;;5023672;28;19911;-84
2022/05/15 04:49:37;;;;;;;;;;;17.20;84.90;;;;;;5035303;28;19928;-83
2022/05/15 04:52:02;;;;;;;;;;;17.20;84.80;;;;;;5016997;28;19913;-84
2022/05/15 04:54:28;;;;;;;;;;;17.20;84.80;;;;;;5034612;28;19992;-83
2022/05/15 04:56:53;;;;;;;;;;;17.10;84.90;;;;;;5005382;28;19913;-83
2022/05/15 04:59:19;;;;;;;;;;;17.20;84.80;;;;;;5015158;28;20285;-83
2022/05/15 05:01:44;;;;;;;;;;;17.20;84.70;;;;;;5013281;28;19909;-83
2022/05/15 05:04:10;;;;;;;;;;;17.20;84.80;;;;;;4997806;28;19933;-83
2022/05/15 05:06:35;;;;;;;;;;;17.20;84.60;;;;;;4977823;28;19906;-83
2022/05/15 05:09:01;;;;;;;;;;;17.10;84.60;;;;;;4994060;28;19996;-83
2022/05/15 05:11:26;;;;;;;;;;;17.20;85.00;;;;;;4995277;28;19906;-83
2022/05/15 05:13:52;;;;;;;;;;;17.20;85.00;;;;;;5018237;28;19913;-83
2022/05/15 05:16:17;;;;;;;;;;;17.20;84.90;;;;;;5000847;28;20389;-84
2022/05/15 05:18:43;;;;;;;;;;;17.20;84.80;;;;;;5017909;28;19913;-83
2022/05/15 05:21:08;;;;;;;;;;;17.30;84.70;;;;;;5000833;28;19963;-83
2022/05/15 05:23:34;;;;;;;;;;;17.30;84.60;;;;;;5018174;28;19976;-83
2022/05/15 05:25:59;;;;;;;;;;;17.30;84.40;;;;;;5000271;28;20426;-84
2022/05/15 05:28:25;;;;;;;;;;;17.30;84.30;;;;;;5018138;28;20588;-83
2022/05/15 05:30:50;;;;;;;;;;;17.30;84.30;;;;;;5000834;28;20290;-83
2022/05/15 05:33:16;;;;;;;;;;;17.30;84.10;;;;;;5000751;28;19906;-83
2022/05/15 05:35:42;;;;;;;;;;;17.30;84.10;;;;;;5017561;28;20390;-82
2022/05/15 05:38:08;;;;;;;;;;;17.30;84.20;;;;;;5000218;28;20358;-84
2022/05/15 05:40:33;;;;;;;;;;;17.30;84.40;;;;;;5018114;28;19905;-84
2022/05/15 05:42:59;;;;;;;;;;;17.20;84.30;;;;;;5000351;28;20008;-83
2022/05/15 05:45:25;;;;;;;;;;;17.20;84.30;;;;;;5000319;28;19905;-80
2022/05/15 05:47:50;;;;;;;;;;;17.20;84.40;;;;;;5015469;28;19906;-82
2022/05/15 05:50:17;;;;;;;;;;;17.20;84.50;;;;;;4995889;28;20016;-81
2022/05/15 05:52:43;;;;;;;;;;;17.20;84.50;;;;;;4997374;28;19916;-82
2022/05/15 05:55:10;;;;;;;;;;;17.20;84.60;;;;;;4997430;28;20584;-81
2022/05/15 05:57:36;;;;;;;;;;;17.20;84.50;;;;;;4998062;28;20004;-81
2022/05/15 06:00:03;;;;;;;;;;;17.20;84.50;;;;;;4998066;28;19957;-82
2022/05/15 06:02:29;;;;;;;;;;;17.20;84.50;;;;;;4997610;28;20298;-83
2022/05/15 06:04:54;;;;;;;;;;;17.20;84.50;;;;;;5014751;28;19905;-83
2022/05/15 06:07:24;;;;;;;;;;;17.20;84.30;;;;;;4997576;28;19909;-82
2022/05/15 06:09:50;;;;;;;;;;;17.20;84.30;;;;;;5001232;28;20604;-82
2022/05/15 06:12:16;;;;;;;;;;;17.20;84.30;;;;;;5034346;28;19905;-81
2022/05/15 06:14:42;;;;;;;;;;;17.20;84.50;;;;;;5016596;28;19916;-82
2022/05/15 06:17:07;;;;;;;;;;;17.30;84.50;;;;;;5034216;28;20374;-82
2022/05/15 06:19:33;;;;;;;;;;;17.30;84.30;;;;;;5034518;28;19960;-81
2022/05/15 06:21:58;;;;;;;;;;;17.30;84.00;;;;;;5006239;28;19909;-82
2022/05/15 06:24:25;;;;;;;;;;;17.40;84.00;;;;;;5026108;28;19913;-79
2022/05/15 06:26:51;;;;;;;;;;;17.40;83.70;;;;;;5009848;28;20489;-82
2022/05/15 06:29:17;;;;;;;;;;;17.50;84.20;;;;;;5013976;28;19909;-80
2022/05/15 06:31:42;;;;;;;;;;;17.40;83.40;;;;;;4996809;28;19912;-82
2022/05/15 06:34:08;;;;;;;;;;;17.40;83.50;;;;;;4996352;28;19909;-80
2022/05/15 06:36:33;;;;;;;;;;;17.40;83.60;;;;;;5013687;28;19913;-82
2022/05/15 06:38:58;;;;;;;;;;;17.40;83.70;;;;;;5013347;28;19909;-79
2022/05/15 06:41:24;;;;;;;;;;;17.40;83.80;;;;;;5014519;28;19921;-80
2022/05/15 06:43:50;;;;;;;;;;;17.40;83.70;;;;;;5013458;28;19966;-81
2022/05/15 06:46:15;;;;;;;;;;;17.40;84.20;;;;;;4995735;28;20036;-79
2022/05/15 06:48:41;;;;;;;;;;;17.40;83.60;;;;;;4996238;28;20425;-81
2022/05/15 06:51:06;;;;;;;;;;;17.40;83.70;;;;;;4996517;28;19959;-80
2022/05/15 06:53:32;;;;;;;;;;;17.40;84.30;;;;;;4996459;28;19913;-81
2022/05/15 06:58:42;;;;;;;;;;;17.40;83.70;;;;;;5021617;28;20401;-79
2022/05/15 07:01:07;;;;;;;;;;;17.40;83.50;;;;;;5002535;28;19917;-79
2022/05/15 07:03:33;;;;;;;;;;;17.40;83.60;;;;;;4997284;28;19910;-81
2022/05/15 07:05:58;;;;;;;;;;;17.50;83.60;;;;;;5013278;28;19974;-80
2022/05/15 07:08:24;;;;;;;;;;;17.50;83.20;;;;;;5000753;28;19909;-85
2022/05/15 07:10:49;;;;;;;;;;;17.50;83.10;;;;;;5015327;28;19914;-82
2022/05/15 07:13:15;;;;;;;;;;;17.50;83.10;;;;;;5003352;28;19916;-82
2022/05/15 07:15:40;;;;;;;;;;;17.50;83.00;;;;;;4997491;28;19916;-83
2022/05/15 07:18:07;;;;;;;;;;;17.50;82.90;;;;;;4996567;28;19940;-83
2022/05/15 07:20:32;;;;;;;;;;;17.60;82.90;;;;;;5014807;28;19905;-82
2022/05/15 07:22:58;;;;;;;;;;;17.60;82.60;;;;;;4996408;28;19959;-81
2022/05/15 07:25:23;;;;;;;;;;;17.70;82.40;;;;;;4996609;28;19909;-81
2022/05/15 07:27:49;;;;;;;;;;;17.70;82.20;;;;;;4996765;28;19916;-81
2022/05/15 07:30:15;;;;;;;;;;;17.80;82.10;;;;;;5014210;28;19905;-82
2022/05/15 07:32:40;;;;;;;;;;;17.80;81.90;;;;;;4996239;28;20436;-81
2022/05/15 07:35:06;;;;;;;;;;;17.80;81.90;;;;;;4994960;28;19909;-82
2022/05/15 07:37:31;;;;;;;;;;;17.80;82.00;;;;;;4996372;28;19944;-82
2022/05/15 07:39:57;;;;;;;;;;;17.70;81.90;;;;;;4996052;28;19909;-80
2022/05/15 07:42:22;;;;;;;;;;;17.70;82.10;;;;;;4996571;28;19924;-81
2022/05/15 07:44:48;;;;;;;;;;;17.70;82.10;;;;;;5013670;28;19909;-82
2022/05/15 07:47:13;;;;;;;;;;;17.70;82.10;;;;;;5013443;28;19901;-82
2022/05/15 07:49:39;;;;;;;;;;;17.70;82.30;;;;;;5013802;28;19913;-83
2022/05/15 07:52:06;;;;;;;;;;;17.70;82.20;;;;;;4997667;28;19928;-80
2022/05/15 07:54:33;;;;;;;;;;;17.70;82.30;;;;;;5013994;28;20058;-79
2022/05/15 07:56:58;;;;;;;;;;;17.70;82.30;;;;;;5007385;28;19911;-81
2022/05/15 07:59:24;;;;;;;;;;;17.70;82.30;;;;;;5033866;28;20546;-80
2022/05/15 08:01:50;;;;;;;;;;;17.80;82.30;;;;;;5014573;28;19909;-80
2022/05/15 08:04:18;;;;;;;;;;;17.80;82.20;;;;;;4996484;28;20354;-82
2022/05/15 08:09:27;;;;;;;;;;;17.80;82.10;;;;;;5007638;28;19932;-80
2022/05/15 08:11:53;;;;;;;;;;;17.80;82.10;;;;;;5011790;28;19909;-81
2022/05/15 08:14:20;;;;;;;;;;;17.80;82.00;;;;;;5011343;28;19910;-80
2022/05/15 08:16:46;;;;;;;;;;;17.90;82.00;;;;;;4993610;28;19909;-82
2022/05/15 08:24:40;;;;;;;;;;;18.00;81.70;;;;;;5011415;28;19920;-80
2022/05/15 08:27:06;;;;;;;;;;;18.00;81.50;;;;;;5012267;28;19905;-80
2022/05/15 08:29:32;;;;;;;;;;;18.10;81.40;;;;;;5011176;28;20320;-81
2022/05/15 08:31:57;;;;;;;;;;;18.10;81.20;;;;;;4998081;28;19913;-81
2022/05/15 08:34:23;;;;;;;;;;;18.10;81.00;;;;;;5014592;28;19909;-82
2022/05/15 08:36:49;;;;;;;;;;;18.10;81.00;;;;;;4997029;28;19909;-81
2022/05/15 08:39:15;;;;;;;;;;;18.10;81.00;;;;;;4997032;28;19916;-83
2022/05/15 08:41:48;;;;;;;;;;;18.10;81.20;;;;;;4996465;28;19977;-81
2022/05/15 08:44:18;;;;;;;;;;;18.10;81.30;;;;;;5014178;28;19916;-81
2022/05/15 08:47:04;;;;;;;;;;;18.00;81.30;;;;;;4998571;28;19909;-82
2022/05/15 08:49:36;;;;;;;;;;;18.10;81.50;;;;;;4999494;28;19916;-81
2022/05/15 08:52:15;;;;;;;;;;;18.10;81.60;;;;;;5017740;28;19912;-81
2022/05/15 08:54:43;;;;;;;;;;;18.10;81.50;;;;;;4999035;28;19913;-81
2022/05/15 08:57:15;;;;;;;;;;;18.10;81.40;;;;;;4999356;28;19963;-81
2022/05/15 08:59:51;;;;;;;;;;;18.10;81.40;;;;;;4999068;28;19909;-80
2022/05/15 09:02:16;;;;;;;;;;;18.10;81.40;;;;;;4999212;28;19905;-82
2022/05/15 09:04:41;;;;;;;;;;;18.10;81.30;;;;;;4998595;28;19971;-81
2022/05/15 09:07:15;;;;;;;;;;;18.10;81.30;;;;;;4998696;28;19905;-81
2022/05/15 09:10:06;;;;;;;;;;;18.20;81.30;;;;;;4998676;28;19953;-82
2022/05/15 09:12:32;;;;;;;;;;;18.20;81.30;;;;;;4998125;28;19984;-81
2022/05/15 09:15:00;;;;;;;;;;;18.20;81.20;;;;;;4997516;28;20452;-82
2022/05/15 09:17:41;;;;;;;;;;;18.20;81.10;;;;;;5015059;28;19909;-81
2022/05/15 09:20:13;;;;;;;;;;;18.20;81.10;;;;;;5014509;28;19916;-79
2022/05/15 09:22:41;;;;;;;;;;;18.30;81.00;;;;;;5014600;28;19917;-82
2022/05/15 09:25:19;;;;;;;;;;;18.30;80.80;;;;;;4997111;28;19928;-81
2022/05/15 09:27:59;;;;;;;;;;;18.40;80.70;;;;;;5011689;28;19914;-83
2022/05/15 09:30:30;;;;;;;;;;;18.40;80.50;;;;;;4997152;28;19905;-83
2022/05/15 09:32:56;;;;;;;;;;;18.40;80.30;;;;;;5014623;28;19909;-82
2022/05/15 09:35:38;;;;;;;;;;;18.40;80.30;;;;;;5014950;28;20342;-82
2022/05/15 09:43:35;;;;;;;;;;;18.40;80.40;;;;;;5014876;28;20380;-81
2022/05/15 09:46:10;;;;;;;;;;;18.40;80.60;;;;;;4996468;28;19916;-82
2022/05/15 09:48:37;;;;;;;;;;;18.40;80.70;;;;;;5014142;28;19905;-83
2022/05/15 09:51:07;;;;;;;;;;;18.40;80.70;;;;;;4997006;28;19909;-81
2022/05/15 09:53:44;;;;;;;;;;;18.40;80.70;;;;;;4996356;28;19909;-82
2022/05/15 09:56:13;;;;;;;;;;;18.40;80.70;;;;;;4996478;28;19996;-83
2022/05/15 09:58:44;;;;;;;;;;;18.40;80.70;;;;;;4995656;28;19906;-83
2022/05/15 10:01:11;;;;;;;;;;;18.40;80.70;;;;;;4996230;28;19905;-83
2022/05/15 10:03:36;;;;;;;;;;;18.40;80.70;;;;;;5013802;28;19914;-83
2022/05/15 10:06:07;;;;;;;;;;;18.40;80.70;;;;;;5013834;28;19905;-82
2022/05/15 10:08:33;;;;;;;;;;;18.40;80.70;;;;;;5014087;28;19906;-82
2022/05/15 10:11:07;;;;;;;;;;;18.40;80.70;;;;;;4995957;28;19920;-82
2022/05/15 10:13:37;;;;;;;;;;;18.40;80.70;;;;;;5013551;28;20004;-82
2022/05/15 10:16:06;;;;;;;;;;;18.40;80.70;;;;;;4995450;28;20425;-82
2022/05/15 10:18:36;;;;;;;;;;;18.40;80.70;;;;;;5013173;28;19924;-83
2022/05/15 10:21:03;;;;;;;;;;;18.40;80.60;;;;;;4995300;28;19913;-83
2022/05/15 10:23:30;;;;;;;;;;;18.40;80.60;;;;;;5013500;28;19916;-82
2022/05/15 10:25:57;;;;;;;;;;;18.50;80.60;;;;;;4995806;28;19968;-82
2022/05/15 10:28:38;;;;;;;;;;;18.50;80.50;;;;;;5013541;28;19909;-82
2022/05/15 10:31:10;;;;;;;;;;;18.50;80.30;;;;;;5012296;28;19946;-80
2022/05/15 10:33:37;;;;;;;;;;;18.60;80.20;;;;;;5015972;28;20429;-82
2022/05/15 10:36:08;;;;;;;;;;;18.60;80.10;;;;;;4999981;28;19917;-83
2022/05/15 10:38:46;;;;;;;;;;;18.60;80.00;;;;;;4999475;28;20390;-82
2022/05/15 10:41:26;;;;;;;;;;;18.60;80.00;;;;;;5016924;28;19909;-83
2022/05/15 10:43:58;;;;;;;;;;;18.50;80.30;;;;;;4998515;28;19909;-83
2022/05/15 10:46:23;;;;;;;;;;;18.50;80.40;;;;;;4998242;28;19906;-83
2022/05/15 10:49:01;;;;;;;;;;;18.60;80.60;;;;;;5015826;28;20278;-82
2022/05/15 10:51:29;;;;;;;;;;;18.50;80.70;;;;;;5015038;28;19905;-83
2022/05/15 10:59:28;;;;;;;;;;;18.50;80.70;;;;;;5015436;28;19944;-82
2022/05/15 11:01:58;;;;;;;;;;;18.50;80.80;;;;;;4996837;28;20358;-83
2022/05/15 11:04:42;;;;;;;;;;;18.50;81.30;;;;;;4996228;28;19913;-82
2022/05/15 11:07:31;;;;;;;;;;;18.50;80.80;;;;;;5014066;28;19916;-83
2022/05/15 11:10:02;;;;;;;;;;;18.50;80.90;;;;;;4995399;28;19906;-82
2022/05/15 11:12:44;;;;;;;;;;;18.50;80.90;;;;;;4995942;28;19912;-83
2022/05/15 11:15:29;;;;;;;;;;;18.50;80.90;;;;;;4995801;28;19917;-83
2022/05/15 11:18:00;;;;;;;;;;;18.50;80.90;;;;;;4995694;28;19963;-82
2022/05/15 11:20:29;;;;;;;;;;;18.50;81.00;;;;;;4995469;28;19906;-81
2022/05/15 11:23:04;;;;;;;;;;;18.40;80.90;;;;;;5013277;28;19910;-82
2022/05/15 11:25:35;;;;;;;;;;;18.50;80.90;;;;;;5012862;28;19906;-83
2022/05/15 11:28:06;;;;;;;;;;;18.50;80.80;;;;;;4995416;28;19909;-83
2022/05/15 11:30:38;;;;;;;;;;;18.50;80.60;;;;;;4995174;28;19909;-83
2022/05/15 11:33:11;;;;;;;;;;;18.60;80.50;;;;;;5012670;28;19909;-83
2022/05/15 11:35:38;;;;;;;;;;;18.60;80.40;;;;;;5012239;28;19906;-82
2022/05/15 11:38:07;;;;;;;;;;;18.60;80.30;;;;;;4995033;28;19905;-83
2022/05/15 11:40:32;;;;;;;;;;;18.60;80.20;;;;;;5012273;28;19941;-82
2022/05/15 11:42:58;;;;;;;;;;;18.50;80.40;;;;;;5012307;28;20351;-81
2022/05/15 11:45:30;;;;;;;;;;;18.50;80.60;;;;;;5011767;28;19909;-83
2022/05/15 11:48:01;;;;;;;;;;;18.50;80.80;;;;;;4994606;28;20333;-83
2022/05/15 11:50:38;;;;;;;;;;;18.40;80.90;;;;;;5012411;28;19997;-83
2022/05/15 11:53:06;;;;;;;;;;;18.40;81.10;;;;;;4994458;28;19949;-83
2022/05/15 11:55:48;;;;;;;;;;;18.40;81.20;;;;;;5011451;28;20636;-82
2022/05/15 11:58:30;;;;;;;;;;;18.40;81.30;;;;;;5012508;28;19909;-82
2022/05/15 12:00:59;;;;;;;;;;;18.40;81.40;;;;;;4997733;28;19914;-83
2022/05/15 12:03:39;;;;;;;;;;;18.40;81.40;;;;;;5014598;28;19913;-82
2022/05/15 12:06:06;;;;;;;;;;;18.40;81.40;;;;;;4996658;28;19964;-82
2022/05/15 12:08:33;;;;;;;;;;;18.40;81.50;;;;;;4996846;28;19916;-82
2022/05/15 12:11:19;;;;;;;;;;;18.40;82.00;;;;;;5014521;28;19914;-83
2022/05/15 12:13:46;;;;;;;;;;;18.30;81.50;;;;;;4989022;28;19909;-83
2022/05/15 12:16:28;;;;;;;;;;;18.30;81.50;;;;;;5013522;28;20321;-83
2022/05/15 12:18:58;;;;;;;;;;;18.30;81.50;;;;;;4996320;28;19969;-83
2022/05/15 12:21:29;;;;;;;;;;;18.30;81.50;;;;;;4995364;28;19906;-82
2022/05/15 12:27:29;;;;;;;;;;;18.40;81.60;;;;;;4972051;28;19949;-82
2022/05/15 12:30:03;;;;;;;;;;;18.40;81.40;;;;;;5003444;28;19910;-82
2022/05/15 12:32:41;;;;;;;;;;;18.40;81.20;;;;;;4994938;28;19952;-82
2022/05/15 12:35:11;;;;;;;;;;;18.50;81.20;;;;;;5012094;28;19932;-81
2022/05/15 12:37:48;;;;;;;;;;;18.50;81.00;;;;;;5012170;28;20386;-81
2022/05/15 12:40:14;;;;;;;;;;;18.40;80.90;;;;;;4994991;28;19996;-82
2022/05/15 12:42:41;;;;;;;;;;;18.40;80.90;;;;;;5011868;28;20044;-81
2022/05/15 12:45:09;;;;;;;;;;;18.40;81.00;;;;;;5012151;28;19909;-83
2022/05/15 12:47:36;;;;;;;;;;;18.40;81.40;;;;;;4994101;28;19910;-83
2022/05/15 12:50:08;;;;;;;;;;;18.30;81.40;;;;;;4994579;28;19948;-80
2022/05/15 12:52:34;;;;;;;;;;;18.30;81.70;;;;;;5011403;28;19909;-82
2022/05/15 12:55:05;;;;;;;;;;;18.30;81.80;;;;;;4993703;28;19929;-82
2022/05/15 12:57:30;;;;;;;;;;;18.30;81.90;;;;;;4993963;28;19905;-83
2022/05/15 12:59:56;;;;;;;;;;;18.30;81.90;;;;;;4993726;28;19909;-82
2022/05/15 13:02:33;;;;;;;;;;;18.30;82.00;;;;;;4993623;28;19905;-83
2022/05/15 13:05:00;;;;;;;;;;;18.30;82.00;;;;;;5010809;28;19912;-82
2022/05/15 13:07:27;;;;;;;;;;;18.20;82.00;;;;;;4993691;28;19909;-83
2022/05/15 13:10:01;;;;;;;;;;;18.20;82.10;;;;;;4993794;28;19909;-83
2022/05/15 13:12:27;;;;;;;;;;;18.20;82.10;;;;;;5011312;28;19923;-82
2022/05/15 13:14:54;;;;;;;;;;;18.20;82.20;;;;;;5011151;28;19945;-82
2022/05/15 13:17:27;;;;;;;;;;;18.20;82.20;;;;;;4993267;28;19909;-83
2022/05/15 13:19:53;;;;;;;;;;;18.20;82.20;;;;;;4993496;28;19917;-81
2022/05/15 13:22:23;;;;;;;;;;;18.20;82.30;;;;;;5011265;28;19913;-82
2022/05/15 13:24:51;;;;;;;;;;;18.20;82.30;;;;;;4993192;28;19906;-82
2022/05/15 13:27:17;;;;;;;;;;;18.20;82.30;;;;;;4993385;28;20414;-81
2022/05/15 13:29:42;;;;;;;;;;;18.20;82.10;;;;;;4993139;28;20010;-82
2022/05/15 13:32:12;;;;;;;;;;;18.30;82.10;;;;;;5011167;28;19940;-81
2022/05/15 13:34:38;;;;;;;;;;;18.30;81.90;;;;;;5013962;28;19940;-82
2022/05/15 13:37:05;;;;;;;;;;;18.30;81.80;;;;;;4996459;28;19906;-82
2022/05/15 13:45:09;;;;;;;;;;;18.20;81.80;;;;;;5014464;28;19940;-82
2022/05/15 13:47:34;;;;;;;;;;;18.20;81.90;;;;;;4996351;28;19905;-82
2022/05/15 13:50:00;;;;;;;;;;;18.20;82.00;;;;;;4995836;28;20008;-80
2022/05/15 13:52:40;;;;;;;;;;;18.20;82.20;;;;;;4996223;28;19960;-82
2022/05/15 13:55:07;;;;;;;;;;;18.10;82.30;;;;;;5013302;28;20437;-82
2022/05/15 13:57:33;;;;;;;;;;;18.10;82.40;;;;;;5013332;28;20020;-82
2022/05/15 14:00:00;;;;;;;;;;;18.10;82.60;;;;;;5014214;28;19971;-82
2022/05/15 14:02:26;;;;;;;;;;;18.10;82.60;;;;;;5017001;28;19952;-81
2022/05/15 14:04:59;;;;;;;;;;;18.10;82.60;;;;;;5017032;28;19905;-84
2022/05/15 14:07:24;;;;;;;;;;;18.10;82.70;;;;;;5016961;28;20281;-83
2022/05/15 14:09:51;;;;;;;;;;;18.00;82.70;;;;;;4998977;28;19913;-82
2022/05/15 14:12:18;;;;;;;;;;;18.10;82.70;;;;;;4998723;28;19909;-83
2022/05/15 14:14:46;;;;;;;;;;;18.10;82.70;;;;;;5016013;28;19913;-82
2022/05/15 14:17:17;;;;;;;;;;;18.00;82.70;;;;;;5016001;28;19909;-81
2022/05/15 14:20:09;;;;;;;;;;;18.00;82.80;;;;;;4998072;28;20393;-82
2022/05/15 14:22:35;;;;;;;;;;;18.10;82.80;;;;;;5013344;28;19916;-82
2022/05/15 14:25:01;;;;;;;;;;;18.00;82.80;;;;;;5015298;28;20622;-82
2022/05/15 14:27:26;;;;;;;;;;;18.00;82.70;;;;;;5015309;28;19985;-82
2022/05/15 14:29:52;;;;;;;;;;;18.10;82.70;;;;;;4997042;28;20255;-81
2022/05/15 14:32:25;;;;;;;;;;;18.10;82.50;;;;;;4997089;28;19909;-83
2022/05/15 14:34:52;;;;;;;;;;;18.10;82.40;;;;;;5014451;28;20382;-82
2022/05/15 14:37:17;;;;;;;;;;;18.10;82.30;;;;;;4996570;28;19948;-82
2022/05/15 14:39:43;;;;;;;;;;;18.10;82.30;;;;;;5014111;28;20388;-82
2022/05/15 14:42:08;;;;;;;;;;;18.20;82.30;;;;;;4996329;28;19992;-81
2022/05/15 14:44:34;;;;;;;;;;;18.10;82.30;;;;;;5013902;28;19920;-82
2022/05/15 14:47:00;;;;;;;;;;;18.10;82.40;;;;;;4996112;28;20000;-83
2022/05/15 14:49:26;;;;;;;;;;;18.10;82.50;;;;;;5013629;28;19960;-82
2022/05/15 14:51:52;;;;;;;;;;;18.10;82.60;;;;;;4996028;28;19913;-80
2022/05/15 14:54:19;;;;;;;;;;;18.00;82.60;;;;;;5013589;28;19913;-82